createdAt,value
2018-06-15T00:00:12.996Z,7.07
2018-06-15T00:02:41.183Z,7.07
2018-06-15T00:05:09.387Z,7.20
2018-06-15T00:07:37.577Z,7.60
2018-06-15T00:10:05.732Z,7.87
2018-06-15T00:12:33.887Z,6.23
2018-06-15T00:15:02.044Z,6.90
2018-06-15T00:17:30.257Z,6.83
2018-06-15T00:19:58.404Z,7.08
2018-06-15T00:22:26.587Z,6.33
2018-06-15T00:24:54.756Z,6.50
2018-06-15T00:27:22.896Z,6.57
2018-06-15T00:29:51.051Z,7.63
2018-06-15T00:32:19.198Z,6.27
2018-06-15T00:34:47.360Z,7.67
2018-06-15T00:37:15.504Z,7.37
2018-06-15T00:39:43.665Z,7.57
2018-06-15T00:42:11.787Z,7.30
2018-06-15T00:44:39.963Z,7.70
2018-06-15T00:47:08.103Z,7.40
2018-06-15T00:49:36.256Z,7.33
2018-06-15T00:52:04.387Z,7.60
2018-06-15T00:54:32.600Z,7.47
2018-06-15T00:57:12.403Z,7.90
2018-06-15T00:59:40.696Z,7.37
2018-06-15T01:02:08.995Z,7.00
2018-06-15T01:04:37.156Z,6.93
2018-06-15T01:07:05.456Z,7.03
2018-06-15T01:09:33.628Z,7.03
2018-06-15T01:12:01.852Z,7.78
2018-06-15T01:14:30.029Z,7.50
2018-06-15T01:16:58.171Z,7.60
2018-06-15T01:19:26.324Z,7.77
2018-06-15T01:21:54.481Z,7.63
2018-06-15T01:24:22.434Z,6.90
2018-06-15T01:26:50.580Z,6.43
2018-06-15T01:29:18.891Z,6.70
2018-06-15T01:31:46.836Z,6.70
2018-06-15T01:34:15.134Z,7.33
2018-06-15T01:36:43.344Z,7.30
2018-06-15T01:39:12.079Z,7.67
2018-06-15T01:41:40.260Z,6.77
2018-06-15T01:44:08.436Z,6.80
2018-06-15T01:46:36.576Z,11.23
2018-06-15T01:49:04.804Z,7.20
2018-06-15T01:51:32.721Z,7.50
2018-06-15T01:54:00.910Z,6.83
2018-06-15T01:56:29.115Z,6.37
2018-06-15T01:58:57.039Z,6.90
2018-06-15T02:01:25.484Z,7.60
2018-06-15T02:03:53.473Z,7.70
2018-06-15T02:06:21.644Z,7.77
2018-06-15T02:08:49.813Z,7.43
2018-06-15T02:11:18.041Z,7.57
2018-06-15T02:13:46.257Z,7.90
2018-06-15T02:16:15.365Z,7.47
2018-06-15T02:18:43.587Z,6.80
2018-06-15T02:21:11.767Z,7.70
2018-06-15T02:23:39.939Z,8.00
2018-06-15T02:26:08.104Z,7.13
2018-06-15T02:28:36.291Z,7.75
2018-06-15T02:31:04.471Z,7.92
2018-06-15T02:33:32.405Z,7.15
2018-06-15T02:36:00.556Z,7.50
2018-06-15T02:38:28.755Z,8.13
2018-06-15T02:40:56.935Z,6.37
2018-06-15T02:43:25.321Z,7.27
2018-06-15T02:45:53.506Z,7.33
2018-06-15T02:48:21.679Z,8.20
2018-06-15T02:50:49.819Z,7.80
2018-06-15T02:53:18.003Z,7.27
2018-06-15T02:55:46.178Z,7.40
2018-06-15T02:58:14.332Z,7.20
2018-06-15T03:00:42.495Z,7.40
2018-06-15T03:03:10.648Z,7.17
2018-06-15T03:05:38.823Z,6.97
2018-06-15T03:08:07.016Z,7.10
2018-06-15T03:10:35.201Z,8.00
2018-06-15T03:13:03.366Z,7.33
2018-06-15T03:15:31.537Z,7.17
2018-06-15T03:17:59.723Z,6.77
2018-06-15T03:20:27.865Z,6.93
2018-06-15T03:22:56.039Z,7.05
2018-06-15T03:25:24.225Z,6.97
2018-06-15T03:27:52.401Z,6.83
2018-06-15T03:30:20.593Z,6.67
2018-06-15T03:32:49.679Z,7.13
2018-06-15T03:35:17.839Z,7.17
2018-06-15T03:37:46.026Z,9.23
2018-06-15T03:40:14.180Z,6.80
2018-06-15T03:42:42.343Z,6.83
2018-06-15T03:45:13.527Z,7.45
2018-06-15T03:47:41.703Z,7.63
2018-06-15T03:50:09.926Z,7.57
2018-06-15T03:55:12.255Z,7.80
2018-06-15T03:57:40.393Z,7.80
2018-06-15T04:00:08.583Z,7.80
2018-06-15T04:02:36.759Z,8.10
2018-06-15T04:05:04.951Z,8.27
2018-06-15T04:07:33.095Z,8.10
2018-06-15T04:10:01.257Z,8.53
2018-06-15T04:12:29.412Z,7.73
2018-06-15T04:14:57.555Z,8.60
2018-06-15T04:17:25.711Z,8.88
2018-06-15T04:19:53.873Z,8.40
2018-06-15T04:22:23.123Z,8.50
2018-06-15T04:24:51.326Z,7.70
2018-06-15T04:27:19.542Z,7.90
2018-06-15T04:29:47.741Z,8.40
2018-06-15T04:32:15.955Z,7.50
2018-06-15T04:34:44.117Z,8.07
2018-06-15T04:37:12.315Z,8.50
2018-06-15T04:39:40.528Z,7.97
2018-06-15T04:42:08.709Z,8.50
2018-06-15T04:44:36.886Z,9.13
2018-06-15T04:47:05.304Z,9.77
2018-06-15T04:49:33.559Z,8.20
2018-06-15T04:52:01.885Z,10.63
2018-06-15T04:54:30.044Z,8.77
2018-06-15T04:56:57.972Z,7.77
2018-06-15T04:59:26.308Z,7.30
2018-06-15T05:01:54.493Z,9.00
2018-06-15T05:04:23.866Z,8.63
2018-06-15T05:06:51.995Z,9.00
2018-06-15T05:09:20.247Z,7.23
2018-06-15T05:11:48.357Z,8.95
2018-06-15T05:14:16.535Z,8.33
2018-06-15T05:16:44.716Z,7.60
2018-06-15T05:19:12.863Z,8.10
2018-06-15T05:21:41.047Z,7.97
2018-06-15T05:24:09.221Z,8.20
2018-06-15T05:26:37.399Z,9.13
2018-06-15T05:29:05.720Z,8.17
2018-06-15T05:31:33.917Z,8.17
2018-06-15T05:34:02.081Z,7.60
2018-06-15T05:36:30.282Z,8.67
2018-06-15T05:38:58.438Z,9.87
2018-06-15T05:41:26.638Z,8.53
2018-06-15T05:43:54.871Z,9.03
2018-06-15T05:46:23.060Z,9.00
2018-06-15T05:48:51.223Z,8.80
2018-06-15T05:51:19.424Z,8.90
2018-06-15T05:53:47.578Z,8.67
2018-06-15T05:56:15.750Z,8.30
2018-06-15T05:58:43.930Z,11.10
2018-06-15T06:01:12.100Z,8.53
2018-06-15T06:03:40.265Z,9.27
2018-06-15T06:06:08.456Z,8.85
2018-06-15T06:08:36.635Z,9.40
2018-06-15T06:11:04.812Z,8.33
2018-06-15T06:13:32.956Z,10.90
2018-06-15T06:16:01.148Z,9.43
2018-06-15T06:18:29.343Z,9.37
2018-06-15T06:20:57.518Z,14.33
2018-06-15T06:23:25.728Z,9.30
2018-06-15T06:25:53.880Z,9.70
2018-06-15T06:28:22.052Z,9.33
2018-06-15T06:30:50.219Z,9.90
2018-06-15T06:33:18.529Z,10.87
2018-06-15T06:35:46.715Z,11.43
2018-06-15T06:38:14.906Z,10.80
2018-06-15T06:40:43.079Z,14.03
2018-06-15T06:43:11.240Z,10.80
2018-06-15T06:45:39.437Z,9.50
2018-06-15T06:48:07.593Z,9.70
2018-06-15T06:50:35.829Z,9.90
2018-06-15T06:53:03.955Z,9.70
2018-06-15T06:55:32.111Z,10.23
2018-06-15T06:58:00.275Z,11.10
2018-06-15T07:00:28.469Z,10.77
2018-06-15T07:02:57.167Z,14.25
2018-06-15T07:05:25.347Z,10.30
2018-06-15T07:07:53.529Z,16.43
2018-06-15T07:10:21.719Z,13.47
2018-06-15T07:12:49.865Z,11.80
2018-06-15T07:15:18.052Z,9.83
2018-06-15T07:17:46.195Z,10.10
2018-06-15T07:20:14.379Z,9.40
2018-06-15T07:22:42.546Z,9.87
2018-06-15T07:25:10.743Z,11.07
2018-06-15T07:27:51.786Z,14.43
2018-06-15T07:30:19.714Z,10.83
2018-06-15T07:32:47.904Z,13.60
2018-06-15T07:35:16.090Z,16.87
2018-06-15T07:37:44.255Z,16.90
2018-06-15T07:40:12.412Z,14.67
2018-06-15T07:42:40.577Z,11.40
2018-06-15T07:45:08.744Z,12.70
2018-06-15T07:47:36.948Z,17.27
2018-06-15T07:50:05.135Z,16.63
2018-06-15T07:52:33.332Z,13.10
2018-06-15T07:55:01.477Z,11.20
2018-06-15T07:57:29.686Z,12.80
2018-06-15T07:59:57.907Z,14.30
2018-06-15T08:02:26.096Z,12.03
2018-06-15T08:04:54.274Z,11.80
2018-06-15T08:07:22.440Z,10.50
2018-06-15T08:09:50.588Z,10.43
2018-06-15T08:12:18.853Z,11.23
2018-06-15T08:14:47.029Z,12.03
2018-06-15T08:17:15.219Z,12.20
2018-06-15T08:19:43.409Z,20.60
2018-06-15T08:22:11.626Z,12.47
2018-06-15T08:24:39.531Z,10.13
2018-06-15T08:27:07.692Z,11.50
2018-06-15T08:29:35.871Z,10.00
2018-06-15T08:32:04.025Z,11.27
2018-06-15T08:34:32.195Z,13.17
2018-06-15T08:37:00.455Z,11.47
2018-06-15T08:39:28.652Z,10.43
2018-06-15T08:41:56.807Z,9.50
2018-06-15T08:44:24.984Z,9.90
2018-06-15T08:46:53.136Z,9.13
2018-06-15T08:49:21.293Z,8.60
2018-06-15T08:51:49.453Z,9.83
2018-06-15T08:54:17.611Z,9.50
2018-06-15T08:56:45.823Z,12.87
2018-06-15T08:59:14.004Z,9.85
2018-06-15T09:01:42.187Z,10.43
2018-06-15T09:04:10.339Z,10.27
2018-06-15T09:06:38.532Z,10.33
2018-06-15T09:09:07.951Z,10.30
2018-06-15T09:11:36.136Z,10.37
2018-06-15T09:14:04.307Z,9.90
2018-06-15T09:16:32.255Z,9.40
2018-06-15T09:19:00.427Z,11.67
2018-06-15T09:21:28.700Z,9.68
2018-06-15T09:23:56.891Z,10.10
2018-06-15T09:26:25.055Z,9.47
2018-06-15T09:28:53.275Z,10.37
2018-06-15T09:31:21.435Z,11.90
2018-06-15T09:33:49.684Z,9.13
2018-06-15T09:36:17.838Z,11.83
2018-06-15T09:38:46.012Z,11.37
2018-06-15T09:41:14.227Z,11.33
2018-06-15T09:43:42.407Z,10.53
2018-06-15T09:46:10.596Z,9.53
2018-06-15T09:48:42.424Z,11.40
2018-06-15T09:51:11.312Z,11.28
2018-06-15T09:53:39.523Z,10.47
2018-06-15T09:56:07.685Z,8.67
2018-06-15T09:58:35.880Z,9.53
2018-06-15T10:01:09.424Z,11.53
2018-06-15T10:03:38.431Z,9.60
2018-06-15T10:06:06.700Z,8.83
2018-06-15T10:08:35.694Z,10.17
2018-06-15T10:11:04.330Z,11.13
2018-06-15T10:13:32.499Z,9.87
2018-06-15T10:16:00.672Z,15.87
2018-06-15T10:18:28.815Z,9.80
2018-06-15T10:20:56.973Z,9.67
2018-06-15T10:23:25.168Z,10.00
2018-06-15T10:25:53.378Z,11.50
2018-06-15T10:28:21.527Z,10.33
2018-06-15T10:30:49.700Z,10.30
2018-06-15T10:33:17.853Z,9.87
2018-06-15T10:35:46.040Z,9.63
2018-06-15T10:38:14.013Z,9.23
2018-06-15T10:40:42.187Z,10.93
2018-06-15T10:43:10.384Z,9.33
2018-06-15T10:45:38.593Z,16.27
2018-06-15T10:48:06.724Z,12.30
2018-06-15T10:50:34.891Z,10.03
2018-06-15T10:53:03.047Z,10.53
2018-06-15T10:55:31.199Z,13.87
2018-06-15T10:57:59.663Z,12.58
2018-06-15T11:00:27.913Z,20.43
2018-06-15T11:02:56.072Z,10.07
2018-06-15T11:05:24.239Z,9.73
2018-06-15T11:07:52.427Z,10.20
2018-06-15T11:10:20.600Z,10.00
2018-06-15T11:12:48.764Z,10.50
2018-06-15T11:15:16.938Z,10.60
2018-06-15T11:17:45.116Z,8.90
2018-06-15T11:20:13.358Z,9.43
2018-06-15T11:22:41.527Z,9.67
2018-06-15T11:25:09.684Z,9.40
2018-06-15T11:27:37.906Z,10.00
2018-06-15T11:30:06.167Z,13.88
2018-06-15T11:32:34.460Z,16.83
2018-06-15T11:35:02.660Z,13.17
2018-06-15T11:37:30.820Z,11.50
2018-06-15T11:39:58.992Z,11.47
2018-06-15T11:42:27.172Z,11.70
2018-06-15T11:44:55.336Z,14.60
2018-06-15T11:47:23.524Z,9.37
2018-06-15T11:49:51.790Z,11.27
2018-06-15T11:52:19.943Z,11.15
2018-06-15T11:54:48.158Z,9.30
2018-06-15T11:57:16.304Z,11.10
2018-06-15T11:59:44.652Z,10.47
2018-06-15T12:02:13.749Z,12.10
2018-06-15T12:04:41.900Z,11.33
2018-06-15T12:07:10.103Z,11.30
2018-06-15T12:09:38.275Z,10.57
2018-06-15T12:12:06.458Z,13.87
2018-06-15T12:14:34.657Z,10.47
2018-06-15T12:17:02.808Z,10.80
2018-06-15T12:19:30.991Z,12.57
2018-06-15T12:21:59.247Z,11.33
2018-06-15T12:24:27.597Z,12.28
2018-06-15T12:26:55.799Z,12.03
2018-06-15T12:29:23.807Z,12.00
2018-06-15T12:31:51.984Z,12.43
2018-06-15T12:34:20.149Z,11.37
2018-06-15T12:36:48.291Z,12.47
2018-06-15T12:39:16.271Z,12.03
2018-06-15T12:41:44.472Z,16.83
2018-06-15T12:44:12.628Z,11.80
2018-06-15T12:46:40.852Z,12.00
2018-06-15T12:49:09.030Z,11.47
2018-06-15T12:51:37.206Z,16.83
2018-06-15T12:54:05.365Z,10.33
2018-06-15T12:56:33.545Z,10.70
2018-06-15T12:59:01.777Z,12.50
2018-06-15T13:01:29.955Z,10.63
2018-06-15T13:03:58.143Z,11.30
2018-06-15T13:06:26.327Z,11.73
2018-06-15T13:08:54.518Z,11.63
2018-06-15T13:11:22.719Z,12.07
2018-06-15T13:13:50.887Z,10.70
2018-06-15T13:16:19.071Z,11.43
2018-06-15T13:18:47.770Z,10.00
2018-06-15T13:21:15.980Z,11.17
2018-06-15T13:23:44.146Z,10.50
2018-06-15T13:26:12.275Z,12.00
2018-06-15T13:28:40.423Z,10.80
2018-06-15T13:31:08.608Z,13.53
2018-06-15T13:33:36.788Z,9.80
2018-06-15T13:36:05.120Z,10.57
2018-06-15T13:38:33.295Z,11.27
2018-06-15T13:41:01.508Z,10.70
2018-06-15T13:43:29.695Z,10.70
2018-06-15T13:45:57.864Z,9.67
2018-06-15T13:48:26.008Z,9.57
2018-06-15T13:50:54.175Z,9.40
2018-06-15T13:53:22.369Z,10.90
2018-06-15T13:55:50.548Z,9.90
2018-06-15T13:58:18.719Z,9.10
2018-06-15T14:00:46.964Z,10.00
2018-06-15T14:03:15.128Z,8.65
2018-06-15T14:05:43.331Z,9.27
2018-06-15T14:08:11.562Z,9.23
2018-06-15T14:10:39.511Z,9.40
2018-06-15T14:13:07.668Z,11.27
2018-06-15T14:15:35.831Z,9.23
2018-06-15T14:18:04.052Z,10.00
2018-06-15T14:20:32.412Z,9.70
2018-06-15T14:23:00.657Z,9.97
2018-06-15T14:25:28.860Z,11.23
2018-06-15T14:27:57.002Z,9.90
2018-06-15T14:30:25.160Z,9.47
2018-06-15T14:32:53.348Z,11.57
2018-06-15T14:35:21.512Z,8.65
2018-06-15T14:37:49.656Z,9.50
2018-06-15T14:40:17.843Z,9.27
2018-06-15T14:42:46.008Z,10.30
2018-06-15T14:45:14.179Z,9.07
2018-06-15T14:47:42.340Z,9.00
2018-06-15T14:50:10.266Z,10.40
2018-06-15T14:52:38.450Z,9.13
2018-06-15T14:55:06.612Z,9.50
2018-06-15T14:57:34.756Z,12.87
2018-06-15T15:00:02.947Z,9.53
2018-06-15T15:02:31.134Z,8.97
2018-06-15T15:04:59.295Z,8.77
2018-06-15T15:07:27.471Z,7.93
2018-06-15T15:09:55.689Z,8.73
2018-06-15T15:12:23.892Z,9.37
2018-06-15T15:14:52.184Z,7.80
2018-06-15T15:17:20.337Z,9.00
2018-06-15T15:19:48.299Z,9.33
2018-06-15T15:22:16.483Z,9.30
2018-06-15T15:24:44.677Z,8.87
2018-06-15T15:27:12.859Z,9.00
2018-06-15T15:48:57.601Z,9.50
2018-06-15T15:51:25.602Z,8.93
2018-06-15T15:53:54.168Z,8.93
2018-06-15T15:56:22.333Z,8.93
2018-06-15T15:58:50.628Z,9.03
2018-06-15T16:01:18.811Z,9.17
2018-06-15T16:03:47.000Z,8.80
2018-06-15T16:06:15.227Z,11.60
2018-06-15T16:08:43.434Z,9.93
2018-06-15T16:11:11.653Z,8.30
2018-06-15T16:13:39.828Z,8.20
2018-06-15T16:16:08.537Z,8.23
2018-06-15T16:18:36.710Z,9.80
2018-06-15T16:21:04.898Z,8.70
2018-06-15T16:23:33.279Z,8.70
2018-06-15T16:26:01.665Z,8.47
2018-06-15T16:28:29.598Z,8.53
2018-06-15T16:30:57.745Z,7.90
2018-06-15T16:33:27.023Z,8.50
2018-06-15T16:35:55.186Z,9.70
2018-06-15T16:38:23.456Z,10.32
2018-06-15T16:40:51.376Z,7.77
2018-06-15T16:43:19.595Z,8.67
2018-06-15T16:45:47.732Z,8.07
2018-06-15T16:48:15.933Z,8.87
2018-06-15T16:50:44.119Z,7.50
2018-06-15T16:53:12.331Z,7.00
2018-06-15T16:55:40.555Z,8.30
2018-06-15T16:58:08.523Z,8.43
2018-06-15T17:00:36.842Z,8.93
2018-06-15T17:03:05.035Z,10.30
2018-06-15T17:05:33.191Z,9.10
2018-06-15T17:08:01.405Z,7.77
2018-06-15T17:10:29.612Z,7.40
2018-06-15T17:12:57.783Z,7.50
2018-06-15T17:15:25.915Z,9.27
2018-06-15T17:17:54.105Z,10.47
2018-06-15T17:20:22.302Z,8.10
2018-06-15T17:22:50.480Z,8.83
2018-06-15T17:25:18.583Z,7.63
2018-06-15T17:27:46.719Z,8.17
2018-06-15T17:30:14.886Z,8.20
2018-06-15T17:32:43.037Z,8.68
2018-06-15T17:35:11.280Z,7.77
2018-06-15T17:37:39.453Z,7.77
2018-06-15T17:40:08.714Z,7.40
2018-06-15T17:42:37.020Z,8.30
2018-06-15T17:45:05.509Z,7.30
2018-06-15T17:47:33.697Z,8.63
2018-06-15T17:50:01.921Z,8.20
2018-06-15T17:52:30.415Z,10.57
2018-06-15T17:54:58.385Z,8.30
2018-06-15T17:57:26.323Z,9.20
2018-06-15T17:59:54.540Z,8.13
2018-06-15T18:02:22.731Z,8.07
2018-06-15T18:04:50.906Z,8.20
2018-06-15T18:07:19.092Z,8.53
2018-06-15T18:09:47.271Z,8.30
2018-06-15T18:12:15.609Z,7.80
2018-06-15T18:14:43.815Z,8.50
2018-06-15T18:17:11.994Z,9.18
2018-06-15T18:19:40.143Z,9.60
2018-06-15T18:22:08.366Z,10.50
2018-06-15T18:24:36.504Z,8.57
2018-06-15T18:29:58.164Z,13.90
2018-06-15T18:32:26.426Z,8.67
2018-06-15T18:34:55.215Z,13.30
2018-06-15T18:37:23.403Z,8.68
2018-06-15T18:39:51.588Z,9.60
2018-06-15T18:42:19.752Z,10.70
2018-06-15T18:44:47.935Z,9.50
2018-06-15T18:47:16.153Z,10.13
2018-06-15T18:49:44.340Z,10.40
2018-06-15T18:52:12.528Z,9.40
2018-06-15T18:54:40.731Z,9.57
2018-06-15T18:57:08.855Z,10.53
2018-06-15T18:59:37.086Z,9.30
2018-06-15T19:02:05.265Z,9.60
2018-06-15T19:04:33.423Z,10.33
2018-06-15T19:07:01.595Z,9.60
2018-06-15T19:09:29.759Z,9.73
2018-06-15T19:11:57.935Z,9.57
2018-06-15T19:14:26.088Z,10.20
2018-06-15T19:16:54.404Z,10.10
2018-06-15T19:19:22.564Z,10.37
2018-06-15T19:21:50.789Z,14.83
2018-06-15T19:24:18.936Z,9.80
2018-06-15T19:26:47.169Z,10.03
2018-06-15T19:29:15.333Z,9.43
2018-06-15T19:31:56.372Z,11.17
2018-06-15T19:34:24.582Z,9.98
2018-06-15T19:36:52.800Z,10.20
2018-06-15T19:39:21.003Z,10.23
2018-06-15T19:41:49.225Z,10.18
2018-06-15T19:44:17.450Z,10.10
2018-06-15T19:46:45.647Z,11.10
2018-06-15T19:49:13.936Z,10.23
2018-06-15T19:51:42.124Z,9.80
2018-06-15T19:54:10.376Z,9.67
2018-06-15T19:56:38.317Z,9.75
2018-06-15T19:59:06.549Z,9.90
2018-06-15T20:01:34.743Z,9.93
2018-06-15T20:04:02.938Z,10.05
2018-06-15T20:06:31.134Z,10.00
2018-06-15T20:08:59.344Z,10.97
2018-06-15T20:11:27.583Z,9.57
2018-06-15T20:13:56.680Z,10.35
2018-06-15T20:16:24.878Z,10.57
2018-06-15T20:18:53.267Z,11.10
2018-06-15T20:21:21.446Z,9.57
2018-06-15T20:23:49.620Z,10.17
2018-06-15T20:26:17.864Z,10.13
2018-06-15T20:28:46.053Z,10.13
2018-06-15T20:31:14.287Z,10.20
2018-06-15T20:33:42.469Z,10.03
2018-06-15T20:36:10.721Z,11.07
2018-06-15T20:38:38.850Z,10.60
2018-06-15T20:41:07.028Z,10.30
2018-06-15T20:43:35.215Z,11.93
2018-06-15T20:46:03.406Z,9.40
2018-06-15T20:48:31.626Z,11.67
2018-06-15T20:50:59.883Z,11.07
2018-06-15T20:53:28.050Z,11.13
2018-06-15T20:55:56.319Z,11.03
2018-06-15T20:58:24.593Z,10.28
2018-06-15T21:00:52.761Z,11.10
2018-06-15T21:03:20.944Z,10.70
2018-06-15T21:05:49.161Z,10.33
2018-06-15T21:08:17.403Z,10.33
2018-06-15T21:10:45.555Z,9.60
2018-06-15T21:13:13.757Z,13.20
2018-06-15T21:15:41.987Z,10.40
2018-06-15T21:18:10.238Z,11.10
2018-06-15T21:20:38.463Z,11.33
2018-06-15T21:23:06.712Z,10.87
2018-06-15T21:25:34.915Z,10.90
2018-06-15T21:28:03.147Z,10.63
2018-06-15T21:30:31.352Z,11.33
2018-06-15T21:32:59.548Z,11.20
2018-06-15T21:35:27.752Z,10.80
2018-06-15T21:37:56.067Z,11.10
2018-06-15T21:40:24.268Z,10.50
2018-06-15T21:42:52.470Z,12.70
2018-06-15T21:45:20.647Z,10.60
2018-06-15T21:47:48.830Z,12.40
2018-06-15T21:50:17.055Z,10.30
2018-06-15T21:52:45.224Z,11.50
2018-06-15T21:55:13.422Z,10.70
2018-06-15T21:57:41.622Z,10.83
2018-06-15T22:00:09.826Z,11.13
2018-06-15T22:02:38.061Z,10.80
2018-06-15T22:05:06.368Z,11.03
2018-06-15T22:07:34.646Z,10.37
2018-06-15T22:10:02.832Z,11.07
2018-06-15T22:12:31.035Z,11.60
2018-06-15T22:14:59.231Z,9.43
2018-06-15T22:17:27.426Z,10.30
2018-06-15T22:19:55.608Z,11.23
2018-06-15T22:22:23.813Z,9.90
2018-06-15T22:24:51.980Z,11.20
2018-06-15T22:27:20.232Z,10.70
2018-06-15T22:29:48.206Z,10.57
2018-06-15T22:32:16.458Z,10.10
2018-06-15T22:34:44.631Z,11.00
2018-06-15T22:37:12.833Z,10.70
2018-06-15T22:39:41.375Z,10.27
2018-06-15T22:42:09.583Z,10.72
2018-06-15T22:44:37.792Z,10.63
2018-06-15T22:47:05.943Z,10.20
2018-06-15T22:49:34.127Z,10.00
2018-06-15T22:52:02.338Z,11.03
2018-06-15T22:54:30.560Z,10.27
2018-06-15T22:56:58.522Z,11.03
2018-06-15T22:59:26.690Z,10.77
2018-06-15T23:01:54.877Z,12.47
2018-06-15T23:04:23.083Z,11.17
2018-06-15T23:06:51.307Z,10.10
2018-06-15T23:09:20.430Z,10.30
2018-06-15T23:11:48.624Z,10.60
2018-06-15T23:14:16.831Z,10.57
2018-06-15T23:16:45.028Z,11.50
2018-06-15T23:19:13.270Z,11.80
2018-06-15T23:21:41.444Z,10.82
2018-06-15T23:24:09.638Z,10.10
2018-06-15T23:26:43.680Z,11.30
2018-06-15T23:29:11.843Z,10.40
2018-06-15T23:31:40.031Z,10.65
2018-06-15T23:34:08.212Z,11.23
2018-06-15T23:36:36.416Z,11.03
2018-06-15T23:39:06.672Z,12.00
2018-06-15T23:49:05.620Z,10.88
2018-06-15T23:51:33.787Z,10.70
2018-06-15T23:54:01.995Z,11.03
2018-06-15T23:56:30.211Z,11.77
2018-06-15T23:58:58.409Z,11.87
